createdAt,value
2018-02-17T00:15:57.964Z,40.47
2018-02-17T00:18:24.611Z,30.23
2018-02-17T00:30:36.186Z,21.27
2018-02-17T00:33:03.491Z,26.08
2018-02-17T00:35:30.143Z,30.75
2018-02-17T00:37:57.139Z,29.23
2018-02-17T00:40:23.965Z,30.77
2018-02-17T00:42:51.290Z,25.42
2018-02-17T00:45:17.555Z,28.52
2018-02-17T00:47:44.525Z,23.95
2018-02-17T00:50:10.732Z,31.15
2018-02-17T00:52:38.688Z,29.70
2018-02-17T00:55:05.296Z,29.77
2018-02-17T00:57:32.824Z,24.98
2018-02-17T00:59:59.049Z,26.27
2018-02-17T01:02:25.887Z,24.23
2018-02-17T01:04:52.150Z,23.62
2018-02-17T01:07:19.046Z,22.10
2018-02-17T01:09:46.566Z,31.55
2018-02-17T01:12:13.470Z,26.98
2018-02-17T01:14:40.610Z,26.15
2018-02-17T01:17:07.571Z,26.83
2018-02-17T01:19:34.362Z,30.55
2018-02-17T01:22:01.557Z,38.67
2018-02-17T01:24:27.967Z,19.90
2018-02-17T01:26:55.565Z,26.30
2018-02-17T01:29:22.810Z,25.50
2018-02-17T01:31:49.258Z,15.23
2018-02-17T01:34:16.304Z,17.10
2018-02-17T01:36:43.041Z,21.55
2018-02-17T01:39:10.429Z,30.65
2018-02-17T01:41:38.647Z,20.58
2018-02-17T01:44:05.746Z,18.77
2018-02-17T01:46:32.657Z,30.58
2018-02-17T01:48:59.425Z,24.85
2018-02-17T01:51:26.167Z,20.20
2018-02-17T01:53:52.474Z,19.40
2018-02-17T01:56:19.403Z,17.08
2018-02-17T01:58:46.918Z,19.67
2018-02-17T02:01:13.403Z,26.52
2018-02-17T02:03:39.882Z,15.88
2018-02-17T02:06:07.647Z,15.30
2018-02-17T02:08:34.334Z,15.00
2018-02-17T02:11:00.568Z,16.35
2018-02-17T02:13:27.428Z,18.70
2018-02-17T02:15:56.210Z,15.43
2018-02-17T02:18:22.959Z,19.73
2018-02-17T02:20:49.698Z,12.30
2018-02-17T02:23:16.182Z,11.65
2018-02-17T02:25:43.311Z,13.50
2018-02-17T02:28:09.735Z,15.07
2018-02-17T02:30:36.404Z,14.57
2018-02-17T02:33:03.187Z,16.67
2018-02-17T02:35:30.712Z,16.37
2018-02-17T02:37:57.667Z,15.48
2018-02-17T02:40:25.187Z,14.93
2018-02-17T02:42:51.827Z,18.02
2018-02-17T02:45:19.497Z,14.95
2018-02-17T02:47:47.026Z,13.35
2018-02-17T02:50:14.567Z,11.30
2018-02-17T02:52:40.840Z,14.57
2018-02-17T02:55:08.343Z,11.38
2018-02-17T02:57:35.189Z,17.37
2018-02-17T03:00:02.543Z,43.22
2018-02-17T03:02:29.245Z,32.08
2018-02-17T03:04:56.234Z,26.05
2018-02-17T03:07:22.450Z,82.82
2018-02-17T03:09:49.243Z,67.68
2018-02-17T03:12:16.460Z,33.55
2018-02-17T03:14:43.251Z,82.93
2018-02-17T03:17:09.486Z,33.47
2018-02-17T03:19:36.433Z,50.75
2018-02-17T03:22:04.002Z,30.08
2018-02-17T03:24:30.958Z,42.80
2018-02-17T03:26:57.238Z,38.38
2018-02-17T03:29:23.562Z,81.32
2018-02-17T03:31:50.016Z,24.48
2018-02-17T03:34:16.424Z,23.85
2018-02-17T03:36:43.205Z,31.70
2018-02-17T03:39:10.681Z,27.65
2018-02-17T03:41:37.405Z,28.10
2018-02-17T03:44:04.379Z,31.05
2018-02-17T03:46:31.276Z,29.25
2018-02-17T03:48:58.240Z,36.42
2018-02-17T03:51:25.829Z,31.23
2018-02-17T03:53:52.596Z,26.65
2018-02-17T03:56:18.807Z,27.52
2018-02-17T03:58:45.020Z,29.25
2018-02-17T04:01:12.318Z,41.95
2018-02-17T04:03:38.522Z,23.25
2018-02-17T04:06:05.052Z,31.95
2018-02-17T04:08:32.080Z,27.58
2018-02-17T04:10:58.722Z,24.20
2018-02-17T04:13:26.882Z,31.25
2018-02-17T04:15:53.112Z,20.30
2018-02-17T04:18:21.126Z,22.50
2018-02-17T04:20:48.117Z,27.52
2018-02-17T04:23:15.028Z,44.40
2018-02-17T04:25:41.991Z,21.50
2018-02-17T04:28:09.062Z,29.20
2018-02-17T04:30:35.285Z,24.17
2018-02-17T04:33:01.607Z,27.30
2018-02-17T04:35:28.802Z,23.12
2018-02-17T04:37:55.902Z,24.15
2018-02-17T04:40:24.767Z,20.73
2018-02-17T04:42:55.636Z,27.00
2018-02-17T04:45:21.892Z,35.90
2018-02-17T04:48:04.098Z,46.85
2018-02-17T04:50:33.009Z,30.62
2018-02-17T04:56:08.354Z,29.02
2018-02-17T04:58:38.957Z,24.02
2018-02-17T05:01:20.133Z,60.35
2018-02-17T05:03:46.362Z,96.20
2018-02-17T05:06:13.203Z,65.05
2018-02-17T05:08:45.198Z,48.92
2018-02-17T05:11:11.587Z,28.55
2018-02-17T05:13:38.387Z,28.80
2018-02-17T05:16:10.726Z,31.37
2018-02-17T05:18:47.928Z,22.75
2018-02-17T05:21:26.519Z,26.30
2018-02-17T05:23:53.822Z,23.42
2018-02-17T05:29:25.044Z,32.75
2018-02-17T05:31:53.736Z,38.13
2018-02-17T05:34:31.848Z,37.45
2018-02-17T05:36:58.643Z,39.42
2018-02-17T05:39:24.898Z,23.55
2018-02-17T05:41:55.715Z,32.80
2018-02-17T05:44:29.827Z,37.03
2018-02-17T05:46:59.427Z,23.30
2018-02-17T05:49:29.496Z,22.87
2018-02-17T05:51:55.715Z,26.12
2018-02-17T05:54:22.544Z,33.03
2018-02-17T05:56:49.304Z,25.05
2018-02-17T05:59:15.532Z,43.42
2018-02-17T06:01:41.746Z,35.20
2018-02-17T06:04:08.589Z,25.77
2018-02-17T06:06:35.587Z,57.08
2018-02-17T06:09:02.370Z,37.95
2018-02-17T06:11:30.006Z,83.87
2018-02-17T06:13:58.201Z,16.08
2018-02-17T06:16:24.454Z,22.35
2018-02-17T06:18:50.762Z,30.08
2018-02-17T06:21:18.630Z,16.12
2018-02-17T06:23:45.653Z,18.27
2018-02-17T06:26:17.488Z,18.95
2018-02-17T06:28:43.728Z,25.05
2018-02-17T06:31:09.998Z,21.08
2018-02-17T06:33:37.207Z,21.85
2018-02-17T06:36:03.514Z,43.25
2018-02-17T06:38:31.449Z,31.92
2018-02-17T06:40:58.710Z,28.42
2018-02-17T06:43:24.975Z,24.77
2018-02-17T06:45:51.711Z,26.92
2018-02-17T06:48:17.927Z,21.05
2018-02-17T06:50:44.893Z,23.50
2018-02-17T07:02:56.918Z,23.55
2018-02-17T07:05:23.296Z,25.88
2018-02-17T07:07:49.604Z,28.25
2018-02-17T07:10:16.420Z,17.98
2018-02-17T07:12:43.063Z,15.05
2018-02-17T07:15:09.411Z,17.50
2018-02-17T07:17:36.430Z,19.87
2018-02-17T07:20:02.680Z,22.85
2018-02-17T07:22:28.926Z,22.25
2018-02-17T07:24:56.075Z,25.83
2018-02-17T07:27:22.992Z,20.17
2018-02-17T07:29:50.311Z,33.42
2018-02-17T07:32:17.077Z,22.90
2018-02-17T07:34:43.290Z,25.10
2018-02-17T07:37:10.028Z,26.08
2018-02-17T07:39:37.472Z,22.65
2018-02-17T07:42:05.165Z,17.70
2018-02-17T07:44:31.444Z,17.60
2018-02-17T07:46:57.694Z,22.20
2018-02-17T07:49:23.900Z,19.37
2018-02-17T07:51:50.657Z,20.65
2018-02-17T07:54:18.327Z,17.25
2018-02-17T07:56:46.428Z,14.82
2018-02-17T07:59:12.739Z,16.00
2018-02-17T08:01:39.188Z,15.00
2018-02-17T08:04:06.172Z,18.45
2018-02-17T08:06:33.912Z,20.45
2018-02-17T08:09:00.959Z,19.52
2018-02-17T08:11:28.013Z,15.50
2018-02-17T08:13:54.950Z,18.92
2018-02-17T08:16:21.920Z,16.12
2018-02-17T08:18:48.172Z,17.12
2018-02-17T08:21:15.069Z,17.02
2018-02-17T08:23:41.693Z,18.85
2018-02-17T08:26:08.631Z,24.10
2018-02-17T08:38:24.440Z,20.83
2018-02-17T08:40:50.756Z,25.12
2018-02-17T08:43:17.096Z,23.85
2018-02-17T08:45:43.440Z,33.33
2018-02-17T08:48:10.379Z,23.80
2018-02-17T08:50:37.413Z,19.33
2018-02-17T08:53:04.661Z,20.33
2018-02-17T08:55:30.958Z,17.90
2018-02-17T08:57:58.050Z,17.67
2018-02-17T09:00:24.673Z,19.87
2018-02-17T09:02:51.999Z,19.65
2018-02-17T09:05:20.871Z,18.73
2018-02-17T09:07:47.851Z,19.37
2018-02-17T09:10:15.055Z,21.87
2018-02-17T09:12:42.449Z,23.33
2018-02-17T09:15:09.467Z,16.45
2018-02-17T09:17:35.715Z,19.40
2018-02-17T09:20:02.945Z,22.00
2018-02-17T09:22:30.450Z,18.92
2018-02-17T09:24:58.432Z,19.48
2018-02-17T09:27:25.396Z,17.77
2018-02-17T09:29:51.619Z,24.08
2018-02-17T09:32:18.609Z,24.27
2018-02-17T09:34:45.970Z,24.02
2018-02-17T09:37:12.232Z,22.85
2018-02-17T09:39:39.063Z,22.95
2018-02-17T09:42:05.738Z,24.27
2018-02-17T09:44:33.726Z,18.52
2018-02-17T09:46:59.996Z,19.35
2018-02-17T09:49:26.494Z,18.60
2018-02-17T09:51:54.139Z,21.85
2018-02-17T09:54:21.413Z,24.87
2018-02-17T09:56:48.953Z,22.00
2018-02-17T09:59:15.642Z,23.20
2018-02-17T10:01:42.811Z,17.67
2018-02-17T10:04:09.109Z,23.15
2018-02-17T10:06:36.050Z,26.15
2018-02-17T10:09:02.279Z,27.20
2018-02-17T10:11:28.797Z,31.00
2018-02-17T10:13:55.187Z,26.60
2018-02-17T10:16:21.808Z,19.17
2018-02-17T10:18:48.169Z,17.67
2018-02-17T10:21:14.999Z,15.30
2018-02-17T10:23:41.646Z,15.32
2018-02-17T10:26:09.708Z,16.40
2018-02-17T10:28:36.234Z,15.10
2018-02-17T10:31:02.484Z,16.02
2018-02-17T10:33:28.763Z,13.55
2018-02-17T10:35:54.956Z,12.02
2018-02-17T10:38:21.195Z,13.35
2018-02-17T10:40:48.398Z,14.35
2018-02-17T10:43:15.229Z,11.52
2018-02-17T10:45:42.022Z,14.98
2018-02-17T10:48:09.561Z,11.00
2018-02-17T10:50:38.057Z,13.82
2018-02-17T10:53:05.301Z,12.02
2018-02-17T10:55:36.532Z,14.02
2018-02-17T10:58:02.996Z,14.80
2018-02-17T11:00:29.955Z,14.85
2018-02-17T11:02:57.131Z,17.98
2018-02-17T11:25:35.305Z,20.67
2018-02-17T11:43:09.093Z,16.87
2018-02-17T11:45:35.475Z,24.80
2018-02-17T11:48:02.718Z,16.08
2018-02-17T11:50:30.397Z,21.08
2018-02-17T11:52:57.056Z,23.98
2018-02-17T11:55:24.124Z,20.02
2018-02-17T11:57:52.937Z,20.33
2018-02-17T12:00:20.120Z,20.05
2018-02-17T12:02:46.349Z,20.42
2018-02-17T12:05:12.640Z,21.60
2018-02-17T12:07:39.701Z,16.60
2018-02-17T12:10:28.061Z,21.15
2018-02-17T12:12:59.919Z,24.60
2018-02-17T12:15:28.833Z,22.02
2018-02-17T12:17:56.272Z,26.42
2018-02-17T13:18:00.043Z,22.35
2018-02-17T13:20:27.179Z,24.77
2018-02-17T13:22:54.174Z,22.02
2018-02-17T13:25:20.405Z,32.03
2018-02-17T13:27:46.672Z,20.40
2018-02-17T13:30:15.903Z,25.60
2018-02-17T13:32:45.664Z,19.08
2018-02-17T13:35:12.071Z,18.15
2018-02-17T13:37:40.041Z,23.75
2018-02-17T13:40:06.517Z,22.00
2018-02-17T13:42:32.981Z,23.80
2018-02-17T13:45:00.228Z,24.00
2018-02-17T13:47:27.163Z,24.20
2018-02-17T13:49:54.773Z,25.50
2018-02-17T13:52:22.189Z,23.12
2018-02-17T13:54:48.720Z,18.67
2018-02-17T13:57:15.901Z,26.73
2018-02-17T13:59:42.792Z,32.75
2018-02-17T14:02:08.902Z,28.27
2018-02-17T14:04:36.586Z,34.28
2018-02-17T14:07:03.592Z,34.45
2018-02-17T14:09:30.879Z,30.30
2018-02-17T14:11:57.220Z,19.83
2018-02-17T14:14:24.847Z,30.85
2018-02-17T14:16:51.107Z,32.17
2018-02-17T14:19:18.073Z,23.45
2018-02-17T14:21:44.301Z,20.55
2018-02-17T14:24:11.195Z,41.28
2018-02-17T14:26:37.880Z,28.33
2018-02-17T14:29:05.033Z,31.92
2018-02-17T14:31:31.421Z,33.63
2018-02-17T14:33:57.748Z,31.50
2018-02-17T14:36:24.216Z,29.75
2018-02-17T14:38:51.334Z,28.50
2018-02-17T14:41:17.638Z,23.38
2018-02-17T14:43:45.415Z,17.42
2018-02-17T14:46:13.015Z,18.95
2018-02-17T14:48:39.585Z,17.45
2018-02-17T14:51:07.310Z,17.55
2018-02-17T14:53:34.367Z,18.48
2018-02-17T14:56:01.599Z,19.00
2018-02-17T14:58:28.029Z,19.65
2018-02-17T15:00:54.419Z,16.27
2018-02-17T15:03:20.663Z,19.25
2018-02-17T15:05:47.017Z,24.15
2018-02-17T15:08:13.294Z,14.98
2018-02-17T15:10:40.148Z,18.98
2018-02-17T15:13:06.369Z,18.40
2018-02-17T15:15:33.033Z,25.15
2018-02-17T15:17:59.325Z,25.50
2018-02-17T15:20:26.139Z,34.75
2018-02-17T15:22:53.396Z,32.40
2018-02-17T15:25:21.064Z,34.10
2018-02-17T15:27:47.647Z,35.13
2018-02-17T15:30:14.957Z,28.45
2018-02-17T15:32:41.845Z,42.05
2018-02-17T15:35:08.788Z,31.80
2018-02-17T15:37:35.227Z,27.35
2018-02-17T15:40:01.790Z,29.75
2018-02-17T15:42:29.229Z,33.72
2018-02-17T15:44:56.552Z,37.75
2018-02-17T15:47:23.692Z,27.83
2018-02-17T15:49:49.899Z,27.23
2018-02-17T15:52:16.165Z,25.48
2018-02-17T15:54:42.777Z,26.98
2018-02-17T15:57:09.853Z,31.65
2018-02-17T15:59:36.455Z,39.80
2018-02-17T16:02:03.538Z,30.55
2018-02-17T16:04:30.418Z,34.28
2018-02-17T16:06:58.390Z,32.67
2018-02-17T16:09:26.683Z,31.12
2018-02-17T16:11:52.919Z,27.87
2018-02-17T16:14:19.371Z,31.45
2018-02-17T16:16:45.597Z,34.03
2018-02-17T16:19:11.803Z,29.27
2018-02-17T16:21:38.384Z,32.83
2018-02-17T16:24:06.510Z,26.27
2018-02-17T16:26:33.735Z,32.85
2018-02-17T16:29:01.770Z,34.85
2018-02-17T16:31:28.003Z,26.67
2018-02-17T16:33:54.203Z,30.23
2018-02-17T16:36:20.595Z,31.65
2018-02-17T16:38:47.642Z,37.90
2018-02-17T16:41:13.922Z,30.75
2018-02-17T16:43:40.325Z,22.45
2018-02-17T16:46:06.547Z,27.17
2018-02-17T16:48:34.561Z,27.75
2018-02-17T16:51:00.803Z,24.08
2018-02-17T16:53:27.705Z,25.35
2018-02-17T16:55:54.525Z,33.42
2018-02-17T16:58:21.487Z,26.75
2018-02-17T17:00:48.208Z,24.73
2018-02-17T17:03:15.724Z,29.00
2018-02-17T17:05:43.885Z,29.10
2018-02-17T17:08:10.194Z,33.38
2018-02-17T17:10:36.557Z,30.75
2018-02-17T17:13:02.774Z,27.02
2018-02-17T17:15:36.673Z,26.12
2018-02-17T17:18:03.577Z,23.48
2018-02-17T17:20:33.972Z,28.77
2018-02-17T17:23:00.490Z,26.17
2018-02-17T17:25:27.522Z,27.20
2018-02-17T17:27:53.803Z,27.00
2018-02-17T17:30:21.079Z,22.37
2018-02-17T17:32:47.840Z,24.10
2018-02-17T17:35:15.002Z,25.30
2018-02-17T17:37:41.665Z,30.08
2018-02-17T17:40:09.809Z,29.95
2018-02-17T17:42:36.033Z,23.20
2018-02-17T17:45:02.300Z,23.25
2018-02-17T17:47:28.905Z,29.73
2018-02-17T17:49:55.136Z,25.17
2018-02-17T17:52:22.015Z,33.58
2018-02-17T17:54:49.861Z,40.90
2018-02-17T17:57:16.887Z,35.53
2018-02-17T17:59:43.087Z,30.23
2018-02-17T18:02:10.407Z,52.47
2018-02-17T18:04:37.308Z,30.92
2018-02-17T18:07:03.566Z,37.08
2018-02-17T18:09:30.941Z,37.75
2018-02-17T18:11:58.495Z,36.42
2018-02-17T18:14:25.343Z,32.90
2018-02-17T18:16:52.937Z,40.97
2018-02-17T18:19:19.155Z,32.85
2018-02-17T18:21:46.094Z,28.23
2018-02-17T18:24:13.330Z,28.77
2018-02-17T18:26:40.471Z,35.15
2018-02-17T18:29:07.063Z,32.63
2018-02-17T18:31:33.774Z,33.72
2018-02-17T18:34:00.524Z,32.17
2018-02-17T18:36:27.185Z,35.88
2018-02-17T18:38:53.952Z,37.72
2018-02-17T18:41:20.984Z,35.78
2018-02-17T18:43:48.045Z,27.55
2018-02-17T18:46:18.594Z,33.08
2018-02-17T18:48:45.382Z,32.13
2018-02-17T18:51:12.090Z,32.20
2018-02-17T18:53:39.855Z,36.00
2018-02-17T18:56:06.111Z,34.70
2018-02-17T18:58:32.700Z,33.88
2018-02-17T19:01:00.495Z,33.83
2018-02-17T19:03:26.748Z,40.33
2018-02-17T19:05:52.975Z,35.58
2018-02-17T19:08:19.190Z,46.55
2018-02-17T19:10:45.414Z,44.55
2018-02-17T19:13:12.626Z,51.67
2018-02-17T19:15:38.978Z,47.95
2018-02-17T19:18:05.879Z,46.95
2018-02-17T19:20:32.844Z,48.08
2018-02-17T19:22:59.060Z,42.25
2018-02-17T19:25:25.244Z,45.97
2018-02-17T19:27:52.004Z,38.65
2018-02-17T19:30:18.179Z,43.55
2018-02-17T19:32:44.752Z,38.70
2018-02-17T19:35:12.849Z,49.72
2018-02-17T19:37:39.051Z,56.20
2018-02-17T19:40:05.669Z,50.78
2018-02-17T19:42:33.810Z,42.65
2018-02-17T19:45:01.166Z,49.42
2018-02-17T19:47:28.106Z,45.63
2018-02-17T19:49:54.937Z,49.85
2018-02-17T19:52:21.668Z,45.80
2018-02-17T19:54:48.864Z,55.88
2018-02-17T19:57:15.616Z,54.47
2018-02-17T19:59:42.496Z,52.30
2018-02-17T20:02:08.692Z,52.95
2018-02-17T20:04:34.948Z,39.92
2018-02-17T20:07:01.820Z,47.83
2018-02-17T20:09:28.873Z,49.70
2018-02-17T20:11:55.854Z,51.05
2018-02-17T20:14:22.596Z,39.88
2018-02-17T20:16:50.406Z,35.95
2018-02-17T20:19:17.789Z,40.53
2018-02-17T20:21:45.291Z,36.67
2018-02-17T20:24:13.239Z,32.03
2018-02-17T20:26:39.724Z,38.67
2018-02-17T20:29:06.638Z,36.47
2018-02-17T20:31:33.123Z,38.35
2018-02-17T20:34:00.804Z,35.25
2018-02-17T20:36:27.691Z,29.50
2018-02-17T20:38:53.889Z,27.40
2018-02-17T20:41:20.124Z,29.95
2018-02-17T20:43:46.629Z,30.00
2018-02-17T20:46:14.695Z,31.87
2018-02-17T20:48:42.588Z,31.40
2018-02-17T20:51:10.250Z,35.00
2018-02-17T20:53:36.541Z,34.22
2018-02-17T20:56:03.740Z,30.48
2018-02-17T20:58:30.402Z,34.45
2018-02-17T21:00:56.762Z,31.45
2018-02-17T21:03:23.012Z,33.40
2018-02-17T21:05:49.245Z,30.55
2018-02-17T21:08:16.200Z,32.85
2018-02-17T21:10:42.957Z,25.27
2018-02-17T21:13:09.842Z,29.27
2018-02-17T21:15:36.382Z,28.20
2018-02-17T21:18:03.816Z,28.48
2018-02-17T21:20:30.895Z,28.65
2018-02-17T21:22:58.149Z,27.20
2018-02-17T21:25:24.694Z,26.58
2018-02-17T21:27:52.103Z,24.17
2018-02-17T21:30:19.467Z,31.65
2018-02-17T21:32:45.701Z,35.45
2018-02-17T21:35:12.808Z,32.58
2018-02-17T21:37:39.074Z,28.12
2018-02-17T21:40:05.304Z,31.27
2018-02-17T21:42:32.337Z,28.48
2018-02-17T21:44:59.451Z,28.38
2018-02-17T21:47:26.606Z,29.20
2018-02-17T21:49:53.891Z,27.95
2018-02-17T21:52:20.891Z,27.20
2018-02-17T21:54:47.147Z,30.17
2018-02-17T21:57:13.987Z,23.50
2018-02-17T21:59:40.227Z,28.67
2018-02-17T22:02:06.452Z,29.27
2018-02-17T22:04:33.708Z,29.52
2018-02-17T22:07:00.727Z,25.33
2018-02-17T22:09:27.692Z,26.58
2018-02-17T22:11:54.267Z,30.15
2018-02-17T22:14:21.583Z,31.30
2018-02-17T22:16:47.797Z,32.67
2018-02-17T22:19:14.727Z,31.17
2018-02-17T22:21:42.189Z,27.05
2018-02-17T22:24:09.845Z,28.52
2018-02-17T22:26:36.307Z,29.55
2018-02-17T22:29:02.538Z,33.10
2018-02-17T22:31:28.756Z,25.30
2018-02-17T22:33:55.965Z,29.75
2018-02-17T22:36:22.515Z,30.50
2018-02-17T22:38:49.951Z,30.62
2018-02-17T22:47:11.424Z,30.42
2018-02-17T22:49:38.767Z,35.45
2018-02-17T22:52:14.023Z,31.95
2018-02-17T22:54:41.249Z,31.85
2018-02-17T22:57:10.091Z,33.38
2018-02-17T22:59:36.398Z,32.83
2018-02-17T23:02:04.074Z,33.53
2018-02-17T23:04:30.833Z,26.30
2018-02-17T23:06:57.693Z,28.33
2018-02-17T23:12:20.006Z,32.97
2018-02-17T23:14:49.506Z,39.35
2018-02-17T23:17:16.540Z,34.17
2018-02-17T23:19:43.305Z,35.78
2018-02-17T23:22:12.770Z,31.98
2018-02-17T23:24:39.054Z,36.67
2018-02-17T23:27:05.611Z,32.00
2018-02-17T23:29:32.574Z,32.67
2018-02-17T23:31:58.958Z,36.80
2018-02-17T23:34:25.468Z,26.48
2018-02-17T23:36:51.960Z,39.20
2018-02-17T23:39:19.035Z,29.98
2018-02-17T23:41:45.441Z,31.40
2018-02-17T23:44:12.604Z,31.08
2018-02-17T23:46:38.877Z,30.37
2018-02-17T23:49:06.096Z,32.67
2018-02-17T23:51:33.588Z,31.00
2018-02-17T23:56:54.512Z,29.42
2018-02-17T23:59:21.979Z,33.00
